sensor_id;sensor_type;location;lat;lon;timestamp;P1;durP1;ratioP1;P2;durP2;ratioP2
54412;SDS011;41533;51.390;0.074;2022-08-19T00:02:02;0.82;;;0.82;;
54412;SDS011;41533;51.390;0.074;2022-08-19T00:04:31;2.67;;;1.25;;
54412;SDS011;41533;51.390;0.074;2022-08-19T00:06:59;1.75;;;1.10;;
54412;SDS011;41533;51.390;0.074;2022-08-19T00:09:27;1.48;;;0.93;;
54412;SDS011;41533;51.390;0.074;2022-08-19T00:11:55;1.70;;;0.88;;
54412;SDS011;41533;51.390;0.074;2022-08-19T00:14:23;1.00;;;0.80;;
54412;SDS011;41533;51.390;0.074;2022-08-19T00:16:52;1.70;;;1.13;;
54412;SDS011;41533;51.390;0.074;2022-08-19T00:19:21;4.53;;;1.13;;
54412;SDS011;41533;51.390;0.074;2022-08-19T00:21:48;2.85;;;0.90;;
54412;SDS011;41533;51.390;0.074;2022-08-19T00:24:16;1.15;;;0.82;;
54412;SDS011;41533;51.390;0.074;2022-08-19T00:26:43;1.05;;;0.73;;
54412;SDS011;41533;51.390;0.074;2022-08-19T00:29:11;0.82;;;0.82;;
54412;SDS011;41533;51.390;0.074;2022-08-19T00:31:39;1.23;;;0.75;;
54412;SDS011;41533;51.390;0.074;2022-08-19T00:34:07;5.07;;;0.70;;
54412;SDS011;41533;51.390;0.074;2022-08-19T00:36:34;2.83;;;0.95;;
54412;SDS011;41533;51.390;0.074;2022-08-19T00:39:02;1.27;;;0.70;;
54412;SDS011;41533;51.390;0.074;2022-08-19T00:41:29;2.40;;;0.95;;
54412;SDS011;41533;51.390;0.074;2022-08-19T00:43:58;0.70;;;0.65;;
54412;SDS011;41533;51.390;0.074;2022-08-19T00:46:25;0.90;;;0.60;;
54412;SDS011;41533;51.390;0.074;2022-08-19T00:48:53;4.38;;;1.42;;
54412;SDS011;41533;51.390;0.074;2022-08-19T00:51:21;3.03;;;1.02;;
54412;SDS011;41533;51.390;0.074;2022-08-19T00:53:49;2.63;;;1.00;;
54412;SDS011;41533;51.390;0.074;2022-08-19T00:56:16;0.55;;;0.50;;
54412;SDS011;41533;51.390;0.074;2022-08-19T00:58:44;1.65;;;0.80;;
54412;SDS011;41533;51.390;0.074;2022-08-19T01:01:11;2.28;;;0.63;;
54412;SDS011;41533;51.390;0.074;2022-08-19T01:03:38;1.02;;;0.73;;
54412;SDS011;41533;51.390;0.074;2022-08-19T01:06:06;2.45;;;0.65;;
54412;SDS011;41533;51.390;0.074;2022-08-19T01:08:33;3.08;;;1.35;;
54412;SDS011;41533;51.390;0.074;2022-08-19T01:11:01;1.42;;;1.10;;
54412;SDS011;41533;51.390;0.074;2022-08-19T01:13:33;2.27;;;0.80;;
54412;SDS011;41533;51.390;0.074;2022-08-19T01:16:10;1.35;;;0.85;;
54412;SDS011;41533;51.390;0.074;2022-08-19T01:18:40;1.15;;;0.75;;
54412;SDS011;41533;51.390;0.074;2022-08-19T01:21:10;1.23;;;0.82;;
54412;SDS011;41533;51.390;0.074;2022-08-19T01:23:43;1.00;;;0.80;;
54412;SDS011;41533;51.390;0.074;2022-08-19T01:26:12;1.75;;;0.95;;
54412;SDS011;41533;51.390;0.074;2022-08-19T01:28:41;1.73;;;0.93;;
54412;SDS011;41533;51.390;0.074;2022-08-19T01:31:10;0.60;;;0.60;;
54412;SDS011;41533;51.390;0.074;2022-08-19T01:33:38;0.43;;;0.40;;
54412;SDS011;41533;51.390;0.074;2022-08-19T01:36:07;3.20;;;0.57;;
54412;SDS011;41533;51.390;0.074;2022-08-19T01:38:36;5.70;;;1.05;;
54412;SDS011;41533;51.390;0.074;2022-08-19T01:41:03;1.70;;;0.80;;
54412;SDS011;41533;51.390;0.074;2022-08-19T01:43:35;0.50;;;0.50;;
54412;SDS011;41533;51.390;0.074;2022-08-19T01:46:03;1.00;;;0.77;;
54412;SDS011;41533;51.390;0.074;2022-08-19T01:48:35;1.17;;;0.50;;
54412;SDS011;41533;51.390;0.074;2022-08-19T01:51:02;0.90;;;0.68;;
54412;SDS011;41533;51.390;0.074;2022-08-19T01:53:29;0.98;;;0.70;;
54412;SDS011;41533;51.390;0.074;2022-08-19T01:55:59;1.00;;;0.77;;
54412;SDS011;41533;51.390;0.074;2022-08-19T01:58:29;1.48;;;0.88;;
54412;SDS011;41533;51.390;0.074;2022-08-19T02:00:57;0.85;;;0.57;;
54412;SDS011;41533;51.390;0.074;2022-08-19T02:03:25;0.47;;;0.47;;
54412;SDS011;41533;51.390;0.074;2022-08-19T02:05:56;0.73;;;0.63;;
54412;SDS011;41533;51.390;0.074;2022-08-19T02:08:24;0.63;;;0.47;;
54412;SDS011;41533;51.390;0.074;2022-08-19T02:10:51;1.17;;;0.82;;
54412;SDS011;41533;51.390;0.074;2022-08-19T02:13:19;0.85;;;0.63;;
54412;SDS011;41533;51.390;0.074;2022-08-19T02:15:47;0.60;;;0.50;;
54412;SDS011;41533;51.390;0.074;2022-08-19T02:18:15;2.55;;;1.10;;
54412;SDS011;41533;51.390;0.074;2022-08-19T02:20:43;1.63;;;0.93;;
54412;SDS011;41533;51.390;0.074;2022-08-19T02:23:11;1.08;;;0.60;;
54412;SDS011;41533;51.390;0.074;2022-08-19T02:25:39;1.10;;;0.80;;
54412;SDS011;41533;51.390;0.074;2022-08-19T02:28:07;2.63;;;1.05;;
54412;SDS011;41533;51.390;0.074;2022-08-19T02:30:34;2.20;;;1.02;;
54412;SDS011;41533;51.390;0.074;2022-08-19T02:33:01;1.13;;;0.85;;
54412;SDS011;41533;51.390;0.074;2022-08-19T02:35:28;1.38;;;0.80;;
54412;SDS011;41533;51.390;0.074;2022-08-19T02:37:56;1.58;;;1.10;;
54412;SDS011;41533;51.390;0.074;2022-08-19T02:40:47;2.25;;;1.00;;
54412;SDS011;41533;51.390;0.074;2022-08-19T02:43:16;2.65;;;0.73;;
54412;SDS011;41533;51.390;0.074;2022-08-19T02:45:43;0.80;;;0.75;;
54412;SDS011;41533;51.390;0.074;2022-08-19T02:48:11;0.85;;;0.80;;
54412;SDS011;41533;51.390;0.074;2022-08-19T02:50:38;3.33;;;1.10;;
54412;SDS011;41533;51.390;0.074;2022-08-19T02:53:06;1.83;;;0.90;;
54412;SDS011;41533;51.390;0.074;2022-08-19T02:55:35;1.50;;;0.88;;
54412;SDS011;41533;51.390;0.074;2022-08-19T02:58:11;1.05;;;0.70;;
54412;SDS011;41533;51.390;0.074;2022-08-19T03:00:42;0.77;;;0.70;;
54412;SDS011;41533;51.390;0.074;2022-08-19T03:03:10;1.63;;;0.95;;
54412;SDS011;41533;51.390;0.074;2022-08-19T03:05:37;1.48;;;1.10;;
54412;SDS011;41533;51.390;0.074;2022-08-19T03:08:14;1.25;;;0.75;;
54412;SDS011;41533;51.390;0.074;2022-08-19T03:10:42;3.47;;;0.90;;
54412;SDS011;41533;51.390;0.074;2022-08-19T03:13:11;0.77;;;0.60;;
54412;SDS011;41533;51.390;0.074;2022-08-19T03:15:39;1.13;;;1.02;;
54412;SDS011;41533;51.390;0.074;2022-08-19T03:18:07;1.55;;;0.82;;
54412;SDS011;41533;51.390;0.074;2022-08-19T03:20:39;1.15;;;0.82;;
54412;SDS011;41533;51.390;0.074;2022-08-19T03:23:06;0.88;;;0.82;;
54412;SDS011;41533;51.390;0.074;2022-08-19T03:25:40;2.30;;;1.10;;
54412;SDS011;41533;51.390;0.074;2022-08-19T03:28:10;0.95;;;0.75;;
54412;SDS011;41533;51.390;0.074;2022-08-19T03:30:39;1.63;;;0.77;;
54412;SDS011;41533;51.390;0.074;2022-08-19T03:33:08;1.33;;;0.80;;
54412;SDS011;41533;51.390;0.074;2022-08-19T03:35:35;1.17;;;0.80;;
54412;SDS011;41533;51.390;0.074;2022-08-19T03:38:05;0.57;;;0.57;;
54412;SDS011;41533;51.390;0.074;2022-08-19T03:40:36;1.00;;;0.82;;
54412;SDS011;41533;51.390;0.074;2022-08-19T03:43:03;1.77;;;0.80;;
54412;SDS011;41533;51.390;0.074;2022-08-19T03:45:30;2.25;;;1.02;;
54412;SDS011;41533;51.390;0.074;2022-08-19T03:47:57;1.20;;;1.02;;
54412;SDS011;41533;51.390;0.074;2022-08-19T03:50:25;1.75;;;0.90;;
54412;SDS011;41533;51.390;0.074;2022-08-19T03:52:52;1.38;;;1.02;;
54412;SDS011;41533;51.390;0.074;2022-08-19T03:55:19;1.52;;;0.93;;
54412;SDS011;41533;51.390;0.074;2022-08-19T03:57:47;1.40;;;0.98;;
54412;SDS011;41533;51.390;0.074;2022-08-19T04:00:15;1.13;;;1.00;;
54412;SDS011;41533;51.390;0.074;2022-08-19T04:02:43;1.77;;;1.42;;
54412;SDS011;41533;51.390;0.074;2022-08-19T04:05:22;1.17;;;1.08;;
54412;SDS011;41533;51.390;0.074;2022-08-19T04:07:50;1.95;;;1.05;;
54412;SDS011;41533;51.390;0.074;2022-08-19T04:10:17;2.40;;;1.20;;
54412;SDS011;41533;51.390;0.074;2022-08-19T04:12:44;1.80;;;1.40;;
54412;SDS011;41533;51.390;0.074;2022-08-19T04:15:13;1.58;;;1.35;;
54412;SDS011;41533;51.390;0.074;2022-08-19T04:17:40;1.10;;;0.82;;
54412;SDS011;41533;51.390;0.074;2022-08-19T04:20:07;1.85;;;1.10;;
54412;SDS011;41533;51.390;0.074;2022-08-19T04:22:35;1.58;;;1.08;;
54412;SDS011;41533;51.390;0.074;2022-08-19T04:25:02;2.13;;;1.20;;
54412;SDS011;41533;51.390;0.074;2022-08-19T04:27:29;1.13;;;1.02;;
54412;SDS011;41533;51.390;0.074;2022-08-19T04:29:58;1.50;;;1.00;;
54412;SDS011;41533;51.390;0.074;2022-08-19T04:32:25;3.47;;;1.40;;
54412;SDS011;41533;51.390;0.074;2022-08-19T04:34:52;1.02;;;0.80;;
54412;SDS011;41533;51.390;0.074;2022-08-19T04:37:27;1.58;;;1.20;;
54412;SDS011;41533;51.390;0.074;2022-08-19T04:39:55;2.75;;;1.10;;
54412;SDS011;41533;51.390;0.074;2022-08-19T04:42:41;1.20;;;0.90;;
54412;SDS011;41533;51.390;0.074;2022-08-19T04:45:10;2.80;;;1.00;;
54412;SDS011;41533;51.390;0.074;2022-08-19T04:47:39;1.33;;;1.20;;
54412;SDS011;41533;51.390;0.074;2022-08-19T04:50:14;2.92;;;1.33;;
54412;SDS011;41533;51.390;0.074;2022-08-19T04:52:44;1.23;;;1.10;;
54412;SDS011;41533;51.390;0.074;2022-08-19T04:55:12;1.38;;;1.15;;
54412;SDS011;41533;51.390;0.074;2022-08-19T04:57:39;2.15;;;1.48;;
54412;SDS011;41533;51.390;0.074;2022-08-19T05:00:10;1.02;;;0.93;;
54412;SDS011;41533;51.390;0.074;2022-08-19T05:02:38;3.00;;;1.20;;
54412;SDS011;41533;51.390;0.074;2022-08-19T05:05:05;1.50;;;1.40;;
54412;SDS011;41533;51.390;0.074;2022-08-19T05:07:33;1.85;;;1.35;;
54412;SDS011;41533;51.390;0.074;2022-08-19T05:10:01;1.20;;;1.00;;
54412;SDS011;41533;51.390;0.074;2022-08-19T05:12:28;1.95;;;1.30;;
54412;SDS011;41533;51.390;0.074;2022-08-19T05:14:56;2.40;;;1.05;;
54412;SDS011;41533;51.390;0.074;2022-08-19T05:17:25;1.73;;;1.30;;
54412;SDS011;41533;51.390;0.074;2022-08-19T05:19:54;1.35;;;1.10;;
54412;SDS011;41533;51.390;0.074;2022-08-19T05:22:41;2.05;;;1.25;;
54412;SDS011;41533;51.390;0.074;2022-08-19T05:25:10;4.38;;;1.40;;
54412;SDS011;41533;51.390;0.074;2022-08-19T05:27:40;2.65;;;1.42;;
54412;SDS011;41533;51.390;0.074;2022-08-19T05:30:08;1.63;;;1.50;;
54412;SDS011;41533;51.390;0.074;2022-08-19T05:32:35;1.80;;;1.02;;
54412;SDS011;41533;51.390;0.074;2022-08-19T05:35:03;1.17;;;1.08;;
54412;SDS011;41533;51.390;0.074;2022-08-19T05:37:31;1.42;;;1.00;;
54412;SDS011;41533;51.390;0.074;2022-08-19T05:39:58;2.00;;;1.10;;
54412;SDS011;41533;51.390;0.074;2022-08-19T05:42:25;1.35;;;1.17;;
54412;SDS011;41533;51.390;0.074;2022-08-19T05:44:53;1.88;;;1.10;;
54412;SDS011;41533;51.390;0.074;2022-08-19T05:47:20;0.90;;;0.90;;
54412;SDS011;41533;51.390;0.074;2022-08-19T05:49:48;3.47;;;1.15;;
54412;SDS011;41533;51.390;0.074;2022-08-19T05:52:17;1.55;;;0.90;;
54412;SDS011;41533;51.390;0.074;2022-08-19T05:54:45;1.50;;;0.70;;
54412;SDS011;41533;51.390;0.074;2022-08-19T05:57:17;0.65;;;0.45;;
54412;SDS011;41533;51.390;0.074;2022-08-19T05:59:45;1.60;;;0.80;;
54412;SDS011;41533;51.390;0.074;2022-08-19T06:02:12;1.88;;;0.95;;
54412;SDS011;41533;51.390;0.074;2022-08-19T06:04:41;3.17;;;1.13;;
54412;SDS011;41533;51.390;0.074;2022-08-19T06:07:11;2.00;;;0.73;;
54412;SDS011;41533;51.390;0.074;2022-08-19T06:09:40;0.68;;;0.68;;
54412;SDS011;41533;51.390;0.074;2022-08-19T06:12:09;1.63;;;0.90;;
54412;SDS011;41533;51.390;0.074;2022-08-19T06:14:36;0.63;;;0.60;;
54412;SDS011;41533;51.390;0.074;2022-08-19T06:17:06;1.13;;;0.70;;
54412;SDS011;41533;51.390;0.074;2022-08-19T06:19:33;2.08;;;0.80;;
54412;SDS011;41533;51.390;0.074;2022-08-19T06:22:07;1.20;;;0.70;;
54412;SDS011;41533;51.390;0.074;2022-08-19T06:24:34;0.60;;;0.57;;
54412;SDS011;41533;51.390;0.074;2022-08-19T06:27:02;1.33;;;0.60;;
54412;SDS011;41533;51.390;0.074;2022-08-19T06:29:30;0.40;;;0.40;;
54412;SDS011;41533;51.390;0.074;2022-08-19T06:31:58;0.50;;;0.50;;
54412;SDS011;41533;51.390;0.074;2022-08-19T06:34:27;1.75;;;0.88;;
54412;SDS011;41533;51.390;0.074;2022-08-19T06:36:55;0.40;;;0.40;;
54412;SDS011;41533;51.390;0.074;2022-08-19T06:39:23;1.48;;;0.50;;
54412;SDS011;41533;51.390;0.074;2022-08-19T06:41:53;0.70;;;0.50;;
54412;SDS011;41533;51.390;0.074;2022-08-19T06:44:25;0.57;;;0.47;;
54412;SDS011;41533;51.390;0.074;2022-08-19T06:46:53;1.77;;;0.50;;
54412;SDS011;41533;51.390;0.074;2022-08-19T06:49:21;0.40;;;0.40;;
54412;SDS011;41533;51.390;0.074;2022-08-19T06:51:49;0.32;;;0.32;;
54412;SDS011;41533;51.390;0.074;2022-08-19T06:54:17;0.90;;;0.45;;
54412;SDS011;41533;51.390;0.074;2022-08-19T06:56:46;0.52;;;0.40;;
54412;SDS011;41533;51.390;0.074;2022-08-19T06:59:18;0.30;;;0.30;;
54412;SDS011;41533;51.390;0.074;2022-08-19T07:01:46;0.38;;;0.32;;
54412;SDS011;41533;51.390;0.074;2022-08-19T07:04:15;0.70;;;0.40;;
54412;SDS011;41533;51.390;0.074;2022-08-19T07:06:42;2.75;;;0.50;;
54412;SDS011;41533;51.390;0.074;2022-08-19T07:09:11;0.80;;;0.32;;
54412;SDS011;41533;51.390;0.074;2022-08-19T07:11:43;0.55;;;0.55;;
54412;SDS011;41533;51.390;0.074;2022-08-19T07:14:11;0.35;;;0.35;;
54412;SDS011;41533;51.390;0.074;2022-08-19T07:16:42;0.20;;;0.20;;
54412;SDS011;41533;51.390;0.074;2022-08-19T07:19:09;1.02;;;0.45;;
54412;SDS011;41533;51.390;0.074;2022-08-19T07:21:37;0.82;;;0.57;;
54412;SDS011;41533;51.390;0.074;2022-08-19T07:24:04;1.50;;;0.43;;
54412;SDS011;41533;51.390;0.074;2022-08-19T07:26:40;0.75;;;0.30;;
54412;SDS011;41533;51.390;0.074;2022-08-19T07:29:08;1.08;;;0.40;;
54412;SDS011;41533;51.390;0.074;2022-08-19T07:31:35;0.60;;;0.40;;
54412;SDS011;41533;51.390;0.074;2022-08-19T07:34:05;0.40;;;0.40;;
54412;SDS011;41533;51.390;0.074;2022-08-19T07:36:34;0.30;;;0.30;;
54412;SDS011;41533;51.390;0.074;2022-08-19T07:39:04;0.82;;;0.60;;
54412;SDS011;41533;51.390;0.074;2022-08-19T07:41:31;0.57;;;0.57;;
54412;SDS011;41533;51.390;0.074;2022-08-19T07:43:59;0.73;;;0.30;;
54412;SDS011;41533;51.390;0.074;2022-08-19T07:46:31;2.03;;;0.50;;
54412;SDS011;41533;51.390;0.074;2022-08-19T07:48:58;0.30;;;0.30;;
54412;SDS011;41533;51.390;0.074;2022-08-19T07:51:25;1.00;;;0.30;;
54412;SDS011;41533;51.390;0.074;2022-08-19T07:53:54;2.60;;;0.25;;
54412;SDS011;41533;51.390;0.074;2022-08-19T07:56:22;1.40;;;0.43;;
54412;SDS011;41533;51.390;0.074;2022-08-19T07:58:50;0.38;;;0.30;;
54412;SDS011;41533;51.390;0.074;2022-08-19T08:01:19;1.45;;;0.40;;
54412;SDS011;41533;51.390;0.074;2022-08-19T08:03:48;0.40;;;0.40;;
54412;SDS011;41533;51.390;0.074;2022-08-19T08:06:34;1.20;;;0.40;;
54412;SDS011;41533;51.390;0.074;2022-08-19T08:09:22;0.63;;;0.28;;
54412;SDS011;41533;51.390;0.074;2022-08-19T08:11:51;0.20;;;0.20;;
54412;SDS011;41533;51.390;0.074;2022-08-19T08:14:22;2.00;;;0.30;;
54412;SDS011;41533;51.390;0.074;2022-08-19T08:16:54;0.20;;;0.20;;
54412;SDS011;41533;51.390;0.074;2022-08-19T08:19:23;0.68;;;0.30;;
54412;SDS011;41533;51.390;0.074;2022-08-19T08:21:54;0.73;;;0.30;;
54412;SDS011;41533;51.390;0.074;2022-08-19T08:24:22;1.75;;;0.30;;
54412;SDS011;41533;51.390;0.074;2022-08-19T08:26:49;0.52;;;0.43;;
54412;SDS011;41533;51.390;0.074;2022-08-19T08:29:18;0.20;;;0.20;;
54412;SDS011;41533;51.390;0.074;2022-08-19T08:31:46;0.35;;;0.30;;
54412;SDS011;41533;51.390;0.074;2022-08-19T08:34:13;0.35;;;0.35;;
54412;SDS011;41533;51.390;0.074;2022-08-19T08:36:42;0.40;;;0.30;;
54412;SDS011;41533;51.390;0.074;2022-08-19T08:39:13;0.40;;;0.40;;
54412;SDS011;41533;51.390;0.074;2022-08-19T08:41:50;0.30;;;0.30;;
54412;SDS011;41533;51.390;0.074;2022-08-19T08:44:23;1.65;;;0.38;;
54412;SDS011;41533;51.390;0.074;2022-08-19T08:46:58;0.45;;;0.28;;
54412;SDS011;41533;51.390;0.074;2022-08-19T08:54:30;0.50;;;0.38;;
54412;SDS011;41533;51.390;0.074;2022-08-19T08:56:58;0.30;;;0.30;;
54412;SDS011;41533;51.390;0.074;2022-08-19T08:59:28;0.52;;;0.20;;
54412;SDS011;41533;51.390;0.074;2022-08-19T09:01:59;2.42;;;0.45;;
54412;SDS011;41533;51.390;0.074;2022-08-19T09:04:26;0.45;;;0.30;;
54412;SDS011;41533;51.390;0.074;2022-08-19T09:09:32;0.65;;;0.43;;
54412;SDS011;41533;51.390;0.074;2022-08-19T09:17:16;0.22;;;0.22;;
54412;SDS011;41533;51.390;0.074;2022-08-19T09:22:16;2.97;;;1.30;;
54412;SDS011;41533;51.390;0.074;2022-08-19T09:24:49;0.38;;;0.20;;
54412;SDS011;41533;51.390;0.074;2022-08-19T09:27:17;0.43;;;0.25;;
54412;SDS011;41533;51.390;0.074;2022-08-19T09:29:45;0.82;;;0.25;;
54412;SDS011;41533;51.390;0.074;2022-08-19T09:32:12;0.20;;;0.20;;
54412;SDS011;41533;51.390;0.074;2022-08-19T09:34:52;0.80;;;0.32;;
54412;SDS011;41533;51.390;0.074;2022-08-19T09:37:21;1.38;;;0.30;;
54412;SDS011;41533;51.390;0.074;2022-08-19T09:39:49;0.52;;;0.40;;
54412;SDS011;41533;51.390;0.074;2022-08-19T09:42:16;1.20;;;0.30;;
54412;SDS011;41533;51.390;0.074;2022-08-19T09:44:56;0.98;;;0.43;;
54412;SDS011;41533;51.390;0.074;2022-08-19T09:47:23;1.85;;;0.40;;
54412;SDS011;41533;51.390;0.074;2022-08-19T09:49:50;0.45;;;0.40;;
54412;SDS011;41533;51.390;0.074;2022-08-19T09:52:17;1.13;;;0.30;;
54412;SDS011;41533;51.390;0.074;2022-08-19T09:54:45;0.95;;;0.52;;
54412;SDS011;41533;51.390;0.074;2022-08-19T09:57:12;1.45;;;0.50;;
54412;SDS011;41533;51.390;0.074;2022-08-19T09:59:39;2.15;;;0.50;;
54412;SDS011;41533;51.390;0.074;2022-08-19T10:02:07;1.25;;;0.40;;
54412;SDS011;41533;51.390;0.074;2022-08-19T10:04:36;0.45;;;0.35;;
54412;SDS011;41533;51.390;0.074;2022-08-19T10:07:23;0.73;;;0.40;;
54412;SDS011;41533;51.390;0.074;2022-08-19T10:09:55;1.88;;;0.50;;
54412;SDS011;41533;51.390;0.074;2022-08-19T10:12:22;0.90;;;0.32;;
54412;SDS011;41533;51.390;0.074;2022-08-19T10:14:50;0.77;;;0.50;;
54412;SDS011;41533;51.390;0.074;2022-08-19T10:17:20;0.47;;;0.43;;
54412;SDS011;41533;51.390;0.074;2022-08-19T10:19:52;0.22;;;0.22;;
54412;SDS011;41533;51.390;0.074;2022-08-19T10:22:21;0.93;;;0.50;;
54412;SDS011;41533;51.390;0.074;2022-08-19T10:24:49;2.42;;;0.45;;
54412;SDS011;41533;51.390;0.074;2022-08-19T10:27:16;1.63;;;0.65;;
54412;SDS011;41533;51.390;0.074;2022-08-19T10:29:43;1.45;;;0.40;;
54412;SDS011;41533;51.390;0.074;2022-08-19T10:32:12;1.50;;;0.43;;
54412;SDS011;41533;51.390;0.074;2022-08-19T10:34:40;1.70;;;0.47;;
54412;SDS011;41533;51.390;0.074;2022-08-19T10:37:15;0.55;;;0.50;;
54412;SDS011;41533;51.390;0.074;2022-08-19T10:39:45;0.50;;;0.50;;
54412;SDS011;41533;51.390;0.074;2022-08-19T10:42:14;2.47;;;0.50;;
54412;SDS011;41533;51.390;0.074;2022-08-19T10:44:43;2.38;;;0.47;;
54412;SDS011;41533;51.390;0.074;2022-08-19T10:47:10;1.42;;;0.68;;
54412;SDS011;41533;51.390;0.074;2022-08-19T10:49:43;0.40;;;0.40;;
54412;SDS011;41533;51.390;0.074;2022-08-19T10:52:29;1.48;;;0.60;;
54412;SDS011;41533;51.390;0.074;2022-08-19T10:55:04;0.50;;;0.40;;
54412;SDS011;41533;51.390;0.074;2022-08-19T10:57:51;0.52;;;0.40;;
54412;SDS011;41533;51.390;0.074;2022-08-19T11:00:30;2.17;;;0.95;;
54412;SDS011;41533;51.390;0.074;2022-08-19T11:02:58;1.13;;;0.63;;
54412;SDS011;41533;51.390;0.074;2022-08-19T11:05:25;2.60;;;0.60;;
54412;SDS011;41533;51.390;0.074;2022-08-19T11:07:53;0.93;;;0.50;;
54412;SDS011;41533;51.390;0.074;2022-08-19T11:10:20;1.50;;;0.50;;
54412;SDS011;41533;51.390;0.074;2022-08-19T11:12:48;1.35;;;0.60;;
54412;SDS011;41533;51.390;0.074;2022-08-19T11:15:15;1.40;;;0.50;;
54412;SDS011;41533;51.390;0.074;2022-08-19T11:17:42;1.15;;;0.57;;
54412;SDS011;41533;51.390;0.074;2022-08-19T11:20:11;1.58;;;0.68;;
54412;SDS011;41533;51.390;0.074;2022-08-19T11:22:39;3.22;;;0.88;;
54412;SDS011;41533;51.390;0.074;2022-08-19T11:25:08;0.85;;;0.52;;
54412;SDS011;41533;51.390;0.074;2022-08-19T11:27:42;0.38;;;0.38;;
54412;SDS011;41533;51.390;0.074;2022-08-19T11:30:10;1.02;;;0.50;;
54412;SDS011;41533;51.390;0.074;2022-08-19T11:32:39;4.53;;;0.50;;
54412;SDS011;41533;51.390;0.074;2022-08-19T11:35:10;0.45;;;0.45;;
54412;SDS011;41533;51.390;0.074;2022-08-19T11:37:38;4.68;;;0.60;;
54412;SDS011;41533;51.390;0.074;2022-08-19T11:40:06;1.60;;;0.55;;
54412;SDS011;41533;51.390;0.074;2022-08-19T11:42:34;2.83;;;0.43;;
54412;SDS011;41533;51.390;0.074;2022-08-19T11:45:20;0.47;;;0.40;;
54412;SDS011;41533;51.390;0.074;2022-08-19T11:47:47;0.63;;;0.43;;
54412;SDS011;41533;51.390;0.074;2022-08-19T11:50:15;1.88;;;0.40;;
54412;SDS011;41533;51.390;0.074;2022-08-19T11:52:43;0.50;;;0.50;;
54412;SDS011;41533;51.390;0.074;2022-08-19T11:55:12;2.50;;;0.85;;
54412;SDS011;41533;51.390;0.074;2022-08-19T11:57:40;0.82;;;0.70;;
54412;SDS011;41533;51.390;0.074;2022-08-19T12:00:11;0.85;;;0.63;;
54412;SDS011;41533;51.390;0.074;2022-08-19T12:02:40;2.00;;;0.38;;
54412;SDS011;41533;51.390;0.074;2022-08-19T12:05:07;1.42;;;0.52;;
54412;SDS011;41533;51.390;0.074;2022-08-19T12:07:38;3.17;;;0.80;;
54412;SDS011;41533;51.390;0.074;2022-08-19T12:10:06;2.60;;;0.95;;
54412;SDS011;41533;51.390;0.074;2022-08-19T12:12:34;4.20;;;0.90;;
54412;SDS011;41533;51.390;0.074;2022-08-19T12:15:01;3.85;;;0.93;;
54412;SDS011;41533;51.390;0.074;2022-08-19T12:17:29;0.80;;;0.73;;
54412;SDS011;41533;51.390;0.074;2022-08-19T12:19:57;3.15;;;1.00;;
54412;SDS011;41533;51.390;0.074;2022-08-19T12:22:25;4.03;;;1.27;;
54412;SDS011;41533;51.390;0.074;2022-08-19T12:24:52;1.52;;;0.70;;
54412;SDS011;41533;51.390;0.074;2022-08-19T12:27:20;5.28;;;1.15;;
54412;SDS011;41533;51.390;0.074;2022-08-19T12:29:55;2.05;;;0.90;;
54412;SDS011;41533;51.390;0.074;2022-08-19T12:32:22;1.77;;;0.63;;
54412;SDS011;41533;51.390;0.074;2022-08-19T12:34:50;2.75;;;1.05;;
54412;SDS011;41533;51.390;0.074;2022-08-19T12:37:17;2.13;;;1.10;;
54412;SDS011;41533;51.390;0.074;2022-08-19T12:39:44;3.63;;;0.80;;
54412;SDS011;41533;51.390;0.074;2022-08-19T12:42:13;5.20;;;1.27;;
54412;SDS011;41533;51.390;0.074;2022-08-19T12:44:41;6.28;;;1.02;;
54412;SDS011;41533;51.390;0.074;2022-08-19T12:47:09;4.18;;;0.85;;
54412;SDS011;41533;51.390;0.074;2022-08-19T12:49:37;2.33;;;0.80;;
54412;SDS011;41533;51.390;0.074;2022-08-19T12:52:21;2.15;;;0.88;;
54412;SDS011;41533;51.390;0.074;2022-08-19T12:54:48;1.63;;;0.93;;
54412;SDS011;41533;51.390;0.074;2022-08-19T12:57:17;5.57;;;1.23;;
54412;SDS011;41533;51.390;0.074;2022-08-19T12:59:44;1.00;;;0.77;;
54412;SDS011;41533;51.390;0.074;2022-08-19T13:02:12;3.13;;;1.10;;
54412;SDS011;41533;51.390;0.074;2022-08-19T13:04:39;1.48;;;1.05;;
54412;SDS011;41533;51.390;0.074;2022-08-19T13:07:07;4.72;;;0.95;;
54412;SDS011;41533;51.390;0.074;2022-08-19T13:09:35;2.75;;;1.05;;
54412;SDS011;41533;51.390;0.074;2022-08-19T13:12:03;7.43;;;0.88;;
54412;SDS011;41533;51.390;0.074;2022-08-19T13:14:34;6.35;;;1.15;;
54412;SDS011;41533;51.390;0.074;2022-08-19T13:17:02;5.28;;;1.15;;
54412;SDS011;41533;51.390;0.074;2022-08-19T13:19:29;3.53;;;1.13;;
54412;SDS011;41533;51.390;0.074;2022-08-19T13:21:57;1.08;;;0.70;;
54412;SDS011;41533;51.390;0.074;2022-08-19T13:24:26;3.08;;;0.80;;
54412;SDS011;41533;51.390;0.074;2022-08-19T13:26:53;2.15;;;0.90;;
54412;SDS011;41533;51.390;0.074;2022-08-19T13:29:20;1.85;;;0.70;;
54412;SDS011;41533;51.390;0.074;2022-08-19T13:32:06;3.90;;;0.95;;
54412;SDS011;41533;51.390;0.074;2022-08-19T13:34:52;1.55;;;0.88;;
54412;SDS011;41533;51.390;0.074;2022-08-19T13:37:19;3.15;;;0.70;;
54412;SDS011;41533;51.390;0.074;2022-08-19T13:40:08;4.07;;;1.08;;
54412;SDS011;41533;51.390;0.074;2022-08-19T13:42:39;2.17;;;0.60;;
54412;SDS011;41533;51.390;0.074;2022-08-19T13:45:07;3.05;;;0.80;;
54412;SDS011;41533;51.390;0.074;2022-08-19T13:47:34;1.90;;;0.90;;
54412;SDS011;41533;51.390;0.074;2022-08-19T13:50:02;3.78;;;0.80;;
54412;SDS011;41533;51.390;0.074;2022-08-19T13:52:30;1.67;;;0.57;;
54412;SDS011;41533;51.390;0.074;2022-08-19T13:54:57;2.03;;;0.65;;
54412;SDS011;41533;51.390;0.074;2022-08-19T13:57:25;2.47;;;0.82;;
54412;SDS011;41533;51.390;0.074;2022-08-19T13:59:52;3.22;;;1.05;;
54412;SDS011;41533;51.390;0.074;2022-08-19T14:02:19;2.47;;;0.80;;
54412;SDS011;41533;51.390;0.074;2022-08-19T14:04:47;4.95;;;1.10;;
54412;SDS011;41533;51.390;0.074;2022-08-19T14:07:14;1.80;;;0.85;;
54412;SDS011;41533;51.390;0.074;2022-08-19T14:09:41;1.13;;;0.75;;
54412;SDS011;41533;51.390;0.074;2022-08-19T14:12:09;4.47;;;0.77;;
54412;SDS011;41533;51.390;0.074;2022-08-19T14:14:37;7.68;;;1.30;;
54412;SDS011;41533;51.390;0.074;2022-08-19T14:17:07;2.72;;;1.15;;
54412;SDS011;41533;51.390;0.074;2022-08-19T14:19:35;2.92;;;0.88;;
54412;SDS011;41533;51.390;0.074;2022-08-19T14:22:02;7.57;;;0.95;;
54412;SDS011;41533;51.390;0.074;2022-08-19T14:24:30;0.50;;;0.50;;
54412;SDS011;41533;51.390;0.074;2022-08-19T14:26:58;5.90;;;0.95;;
54412;SDS011;41533;51.390;0.074;2022-08-19T14:29:25;4.18;;;1.10;;
54412;SDS011;41533;51.390;0.074;2022-08-19T14:31:56;4.72;;;1.15;;
54412;SDS011;41533;51.390;0.074;2022-08-19T14:34:25;1.55;;;0.73;;
54412;SDS011;41533;51.390;0.074;2022-08-19T14:36:53;1.70;;;0.80;;
54412;SDS011;41533;51.390;0.074;2022-08-19T14:39:20;4.10;;;0.85;;
54412;SDS011;41533;51.390;0.074;2022-08-19T14:41:47;1.38;;;0.68;;
54412;SDS011;41533;51.390;0.074;2022-08-19T14:44:15;3.33;;;1.38;;
54412;SDS011;41533;51.390;0.074;2022-08-19T14:46:42;4.78;;;0.70;;
54412;SDS011;41533;51.390;0.074;2022-08-19T14:49:15;3.47;;;0.82;;
54412;SDS011;41533;51.390;0.074;2022-08-19T14:51:42;3.83;;;1.13;;
54412;SDS011;41533;51.390;0.074;2022-08-19T14:54:10;3.92;;;0.70;;
54412;SDS011;41533;51.390;0.074;2022-08-19T14:56:37;2.45;;;0.75;;
54412;SDS011;41533;51.390;0.074;2022-08-19T14:59:06;2.08;;;0.82;;
54412;SDS011;41533;51.390;0.074;2022-08-19T15:01:34;3.17;;;1.00;;
54412;SDS011;41533;51.390;0.074;2022-08-19T15:04:01;5.00;;;0.65;;
54412;SDS011;41533;51.390;0.074;2022-08-19T15:06:29;4.72;;;0.80;;
54412;SDS011;41533;51.390;0.074;2022-08-19T15:08:56;1.75;;;0.65;;
54412;SDS011;41533;51.390;0.074;2022-08-19T15:11:29;1.88;;;0.85;;
54412;SDS011;41533;51.390;0.074;2022-08-19T15:13:59;2.50;;;1.73;;
54412;SDS011;41533;51.390;0.074;2022-08-19T15:16:27;2.90;;;0.85;;